createdAt,value
2022-08-09T00:01:57.802Z,19.20
2022-08-09T00:04:35.084Z,19.20
2022-08-09T00:07:10.466Z,19.30
2022-08-09T00:09:44.525Z,19.40
2022-08-09T00:12:22.547Z,19.30
2022-08-09T00:14:56.768Z,19.30
2022-08-09T00:18:05.798Z,19.30
2022-08-09T00:20:17.668Z,19.40
2022-08-09T00:22:48.746Z,19.30
2022-08-09T00:25:23.432Z,19.20
2022-08-09T00:28:04.109Z,19.20
2022-08-09T00:30:34.453Z,19.20
2022-08-09T00:33:05.455Z,19.10
2022-08-09T00:35:42.972Z,19.10
2022-08-09T00:38:15.186Z,19.10
2022-08-09T00:40:52.674Z,19.00
2022-08-09T00:44:15.997Z,18.90
2022-08-09T00:46:28.272Z,18.90
2022-08-09T00:49:04.021Z,18.70
2022-08-09T00:51:42.622Z,18.60
2022-08-09T00:54:31.491Z,18.60
2022-08-09T00:57:11.081Z,18.60
2022-08-09T00:59:46.207Z,18.70
2022-08-09T01:02:22.674Z,18.70
2022-08-09T01:05:00.642Z,18.80
2022-08-09T01:08:00.517Z,18.70
2022-08-09T01:10:40.055Z,18.70
2022-08-09T01:13:22.224Z,18.60
2022-08-09T01:15:55.143Z,18.50
2022-08-09T01:18:31.453Z,18.60
2022-08-09T01:21:17.364Z,18.60
2022-08-09T01:24:03.105Z,18.70
2022-08-09T01:26:52.981Z,18.70
2022-08-09T01:29:41.234Z,18.70
2022-08-09T01:32:33.868Z,18.60
2022-08-09T01:35:37.366Z,18.50
2022-08-09T01:38:08.329Z,18.50
2022-08-09T01:40:52.352Z,18.50
2022-08-09T01:43:28.124Z,18.40
2022-08-09T01:46:02.088Z,18.30
2022-08-09T01:48:34.119Z,18.20
2022-08-09T01:51:08.933Z,18.30
2022-08-09T01:53:41.912Z,18.20
2022-08-09T01:56:13.129Z,18.30
2022-08-09T01:58:49.801Z,18.20
2022-08-09T02:01:21.439Z,18.10
2022-08-09T02:04:13.297Z,18.10
2022-08-09T02:06:59.293Z,18.10
2022-08-09T02:09:42.004Z,18.10
2022-08-09T02:12:17.914Z,18.10
2022-08-09T02:14:55.870Z,18.00
2022-08-09T02:17:59.948Z,17.90
2022-08-09T02:20:26.382Z,17.90
2022-08-09T02:23:00.293Z,17.80
2022-08-09T02:25:42.190Z,17.80
2022-08-09T02:28:19.827Z,17.90
2022-08-09T02:30:53.897Z,17.90
2022-08-09T02:33:38.257Z,17.80
2022-08-09T02:36:23.576Z,17.80
2022-08-09T02:38:58.347Z,17.70
2022-08-09T02:41:35.258Z,17.70
2022-08-09T02:44:13.680Z,17.60
2022-08-09T02:47:06.715Z,17.50
2022-08-09T02:49:44.615Z,17.50
2022-08-09T02:52:18.303Z,17.40
2022-08-09T02:54:51.132Z,17.50
2022-08-09T02:57:25.932Z,17.50
2022-08-09T03:00:21.257Z,17.50
2022-08-09T03:02:58.373Z,17.40
2022-08-09T03:05:36.606Z,17.30
2022-08-09T03:08:19.438Z,17.10
2022-08-09T03:10:50.884Z,17.10
2022-08-09T03:13:24.844Z,17.10
2022-08-09T03:16:19.150Z,17.10
2022-08-09T03:18:55.607Z,17.00
2022-08-09T03:21:26.912Z,17.10
2022-08-09T03:24:07.417Z,17.00
2022-08-09T03:26:45.173Z,17.10
2022-08-09T03:29:22.718Z,17.00
2022-08-09T03:31:59.810Z,17.00
2022-08-09T03:34:33.820Z,16.90
2022-08-09T03:37:10.770Z,16.90
2022-08-09T03:39:55.664Z,16.90
2022-08-09T03:42:28.973Z,16.90
2022-08-09T03:45:00.721Z,17.00
2022-08-09T03:47:30.766Z,17.00
2022-08-09T03:50:18.791Z,17.00
2022-08-09T03:53:00.699Z,16.90
2022-08-09T03:55:35.867Z,16.90
2022-08-09T03:58:14.961Z,17.00
2022-08-09T04:00:47.987Z,17.10
2022-08-09T04:03:24.745Z,16.90
2022-08-09T04:06:12.058Z,16.90
2022-08-09T04:08:42.104Z,16.80
2022-08-09T04:11:16.579Z,16.70
2022-08-09T04:14:52.951Z,16.70
2022-08-09T04:16:36.221Z,16.70
2022-08-09T04:19:06.996Z,16.80
2022-08-09T04:21:45.343Z,16.90
2022-08-09T04:24:17.435Z,16.90
2022-08-09T04:26:47.377Z,16.80
2022-08-09T04:29:19.182Z,16.80
2022-08-09T04:31:49.207Z,16.90
2022-08-09T04:34:30.633Z,17.10
2022-08-09T04:37:04.787Z,18.20
2022-08-09T04:39:40.488Z,19.00
2022-08-09T04:42:11.028Z,19.60
2022-08-09T04:44:49.198Z,20.20
2022-08-09T04:47:19.372Z,20.60
2022-08-09T04:49:54.406Z,20.60
2022-08-09T04:52:30.409Z,20.90
2022-08-09T04:55:02.553Z,21.30
2022-08-09T04:57:59.278Z,21.40
2022-08-09T05:00:24.978Z,21.10
2022-08-09T05:03:04.499Z,22.30
2022-08-09T05:06:04.466Z,22.70
2022-08-09T05:08:39.293Z,22.30
2022-08-09T05:11:13.925Z,23.00
2022-08-09T05:13:45.876Z,23.50
2022-08-09T05:16:15.807Z,23.70
2022-08-09T05:18:57.730Z,23.00
2022-08-09T05:21:29.882Z,22.20
2022-08-09T05:24:05.311Z,23.00
2022-08-09T05:26:45.561Z,22.80
2022-08-09T05:29:22.122Z,22.20
2022-08-09T05:32:00.084Z,22.10
2022-08-09T05:34:32.319Z,21.60
2022-08-09T05:37:06.910Z,21.50
2022-08-09T05:39:42.596Z,21.00
2022-08-09T05:42:20.508Z,20.40
2022-08-09T05:44:55.157Z,20.70
2022-08-09T05:47:27.128Z,20.70
2022-08-09T05:50:30.563Z,20.80
2022-08-09T05:52:53.707Z,20.80
2022-08-09T05:55:27.346Z,20.70
2022-08-09T05:58:04.211Z,20.40
2022-08-09T06:00:37.749Z,20.00
2022-08-09T06:03:10.743Z,19.70
2022-08-09T06:05:57.319Z,19.70
2022-08-09T06:08:32.693Z,19.70
2022-08-09T06:11:16.743Z,19.60
2022-08-09T06:13:48.209Z,19.80
2022-08-09T06:16:18.107Z,20.20
2022-08-09T06:18:48.034Z,20.30
2022-08-09T06:21:18.490Z,20.20
2022-08-09T06:23:58.536Z,20.60
2022-08-09T06:26:34.359Z,21.00
2022-08-09T06:29:05.452Z,20.80
2022-08-09T06:31:39.800Z,21.00
2022-08-09T06:34:29.743Z,21.30
2022-08-09T06:37:00.843Z,21.50
2022-08-09T06:39:48.358Z,21.50
2022-08-09T06:42:28.512Z,21.50
2022-08-09T06:45:20.478Z,21.30
2022-08-09T06:47:57.982Z,21.20
2022-08-09T06:50:37.715Z,21.40
2022-08-09T06:53:11.875Z,21.70
2022-08-09T06:55:42.369Z,21.70
2022-08-09T06:58:40.590Z,21.80
2022-08-09T07:01:10.673Z,22.00
2022-08-09T07:03:52.221Z,22.10
2022-08-09T07:06:25.548Z,22.20
2022-08-09T07:08:59.581Z,22.20
2022-08-09T07:11:45.512Z,22.10
2022-08-09T07:14:26.620Z,22.20
2022-08-09T07:16:58.522Z,22.40
2022-08-09T07:19:28.556Z,22.00
2022-08-09T07:21:59.688Z,22.60
2022-08-09T07:24:39.798Z,22.30
2022-08-09T07:27:26.252Z,22.60
2022-08-09T07:30:00.027Z,22.80
2022-08-09T07:32:32.010Z,22.80
2022-08-09T07:35:07.966Z,23.30
2022-08-09T07:37:43.623Z,23.40
2022-08-09T07:40:18.769Z,23.50
2022-08-09T07:42:52.508Z,23.40
2022-08-09T07:45:39.731Z,23.40
2022-08-09T07:48:28.890Z,23.40
2022-08-09T07:51:09.777Z,23.30
2022-08-09T07:54:06.741Z,23.30
2022-08-09T07:56:48.729Z,23.60
2022-08-09T07:59:34.161Z,23.50
2022-08-09T08:02:19.082Z,23.50
2022-08-09T08:04:53.484Z,23.90
2022-08-09T08:09:00.548Z,24.00
2022-08-09T08:10:13.801Z,24.00
2022-08-09T08:12:46.396Z,24.20
2022-08-09T08:15:18.629Z,24.20
2022-08-09T08:17:58.584Z,24.00
2022-08-09T08:20:33.069Z,24.60
2022-08-09T08:23:16.047Z,24.40
2022-08-09T08:25:50.124Z,24.30
2022-08-09T08:28:31.862Z,24.40
2022-08-09T08:31:13.697Z,24.50
2022-08-09T08:33:53.278Z,25.00
2022-08-09T08:36:29.007Z,25.00
2022-08-09T08:39:00.331Z,24.70
2022-08-09T08:41:50.822Z,24.90
2022-08-09T08:44:28.780Z,24.90
2022-08-09T08:47:04.895Z,25.00
2022-08-09T08:49:48.148Z,25.30
2022-08-09T08:52:52.978Z,25.40
2022-08-09T08:55:13.670Z,25.40
2022-08-09T08:57:57.527Z,25.40
2022-08-09T09:00:34.379Z,26.00
2022-08-09T09:03:11.450Z,26.10
2022-08-09T09:06:00.416Z,26.40
2022-08-09T09:08:42.504Z,26.10
2022-08-09T09:11:19.828Z,25.80
2022-08-09T09:13:57.083Z,25.50
2022-08-09T09:16:32.257Z,26.00
2022-08-09T09:19:36.903Z,25.90
2022-08-09T09:22:11.354Z,26.10
2022-08-09T09:24:44.680Z,26.40
2022-08-09T09:28:02.937Z,26.40
2022-08-09T09:30:34.487Z,26.70
2022-08-09T09:33:16.089Z,26.80
2022-08-09T09:36:02.576Z,26.70
2022-08-09T09:38:48.138Z,26.60
2022-08-09T09:41:49.886Z,27.20
2022-08-09T09:44:31.854Z,27.10
2022-08-09T09:47:09.641Z,27.00
2022-08-09T09:50:07.337Z,27.30
2022-08-09T09:52:36.356Z,27.20
2022-08-09T09:55:24.347Z,27.40
2022-08-09T09:58:16.211Z,27.10
2022-08-09T10:00:54.597Z,27.10
2022-08-09T10:03:58.103Z,27.20
2022-08-09T10:06:32.131Z,27.40
2022-08-09T10:09:21.497Z,27.40
2022-08-09T10:12:26.919Z,26.90
2022-08-09T10:15:06.889Z,27.00
2022-08-09T10:17:56.582Z,27.30
2022-08-09T10:20:32.167Z,27.40
2022-08-09T10:23:17.287Z,27.30
2022-08-09T10:26:06.378Z,27.60
2022-08-09T10:28:45.409Z,27.40
2022-08-09T10:34:33.979Z,27.50
2022-08-09T10:37:09.628Z,27.60
2022-08-09T10:39:40.531Z,27.60
2022-08-09T10:42:19.231Z,27.60
2022-08-09T10:44:56.792Z,27.50
2022-08-09T10:48:20.244Z,27.50
2022-08-09T10:50:51.903Z,27.80
2022-08-09T10:53:32.146Z,28.00
2022-08-09T10:56:24.054Z,27.40
2022-08-09T10:58:57.133Z,27.60
2022-08-09T11:03:13.309Z,27.90
2022-08-09T11:04:56.351Z,27.70
2022-08-09T11:07:58.005Z,27.90
2022-08-09T11:11:00.623Z,28.00
2022-08-09T11:13:50.633Z,28.00
2022-08-09T11:16:40.861Z,28.20
2022-08-09T11:19:13.661Z,28.30
2022-08-09T11:21:55.210Z,28.30
2022-08-09T11:24:28.365Z,28.20
2022-08-09T11:26:59.584Z,28.20
2022-08-09T11:30:05.178Z,28.70
2022-08-09T11:32:50.499Z,28.10
2022-08-09T11:35:49.920Z,28.30
2022-08-09T11:38:32.766Z,28.60
2022-08-09T11:41:09.182Z,28.40
2022-08-09T11:43:45.680Z,28.30
2022-08-09T11:46:26.833Z,28.40
2022-08-09T11:49:05.315Z,28.50
2022-08-09T11:53:02.090Z,28.50
2022-08-09T11:55:51.711Z,28.40
2022-08-09T11:58:48.232Z,28.20
2022-08-09T12:02:17.863Z,28.60
2022-08-09T12:04:20.850Z,29.00
2022-08-09T12:07:01.456Z,28.80
2022-08-09T12:09:35.448Z,28.40
2022-08-09T12:12:13.256Z,28.40
2022-08-09T12:15:07.569Z,28.40
2022-08-09T12:17:43.595Z,28.50
2022-08-09T12:20:21.951Z,28.70
2022-08-09T12:22:57.172Z,28.60
2022-08-09T12:25:37.686Z,28.70
2022-08-09T12:29:10.359Z,29.00
2022-08-09T12:31:11.271Z,28.90
2022-08-09T12:34:00.747Z,28.90
2022-08-09T12:36:33.957Z,28.90
2022-08-09T12:39:17.021Z,29.00
2022-08-09T12:41:47.341Z,29.10
2022-08-09T12:44:26.832Z,28.90
2022-08-09T12:47:08.181Z,29.10
2022-08-09T12:49:40.454Z,29.20
2022-08-09T12:52:22.707Z,29.10
2022-08-09T12:56:15.820Z,29.40
2022-08-09T12:58:24.238Z,29.50
2022-08-09T13:00:58.056Z,29.20
2022-08-09T13:03:53.300Z,29.00
2022-08-09T13:06:34.326Z,29.20
2022-08-09T13:09:11.118Z,29.20
2022-08-09T13:11:47.136Z,29.20
2022-08-09T13:14:41.251Z,29.30
2022-08-09T13:17:44.013Z,29.20
2022-08-09T13:20:17.443Z,29.20
2022-08-09T13:23:00.960Z,29.50
2022-08-09T13:25:42.638Z,29.50
2022-08-09T13:28:24.316Z,29.40
2022-08-09T13:32:13.405Z,29.70
2022-08-09T13:33:59.380Z,29.50
2022-08-09T13:36:40.510Z,29.50
2022-08-09T13:41:17.537Z,29.40
2022-08-09T13:42:05.196Z,29.30
2022-08-09T13:44:38.275Z,29.50
2022-08-09T13:47:26.485Z,29.40
2022-08-09T13:50:03.024Z,29.70
2022-08-09T13:52:38.545Z,29.90
2022-08-09T13:55:13.454Z,29.80
2022-08-09T13:57:47.312Z,29.40
2022-08-09T14:00:30.364Z,29.70
2022-08-09T14:03:03.061Z,29.90
2022-08-09T14:05:59.082Z,29.70
2022-08-09T14:08:32.516Z,30.00
2022-08-09T14:11:02.551Z,29.90
2022-08-09T14:14:23.075Z,30.00
2022-08-09T14:16:32.253Z,30.10
2022-08-09T14:19:04.537Z,30.10
2022-08-09T14:21:34.395Z,29.90
2022-08-09T14:24:10.486Z,30.10
2022-08-09T14:26:53.601Z,29.90
2022-08-09T14:29:25.709Z,30.00
2022-08-09T14:32:19.712Z,30.10
2022-08-09T14:34:58.731Z,29.80
2022-08-09T14:38:01.343Z,29.60
2022-08-09T14:40:18.458Z,29.70
2022-08-09T14:43:08.235Z,30.10
2022-08-09T14:46:56.092Z,29.80
2022-08-09T14:48:30.728Z,29.70
2022-08-09T14:51:02.704Z,29.50
2022-08-09T14:53:38.999Z,29.50
2022-08-09T14:56:13.280Z,29.80
2022-08-09T14:58:45.676Z,29.80
2022-08-09T15:01:16.676Z,29.90
2022-08-09T15:03:52.409Z,30.00
2022-08-09T15:06:22.341Z,29.90
2022-08-09T15:08:55.415Z,29.60
2022-08-09T15:11:27.056Z,29.70
2022-08-09T15:14:04.361Z,29.80
2022-08-09T15:16:34.766Z,29.80
2022-08-09T15:19:15.973Z,29.90
2022-08-09T15:21:55.864Z,29.90
2022-08-09T15:24:30.053Z,29.90
2022-08-09T15:26:59.958Z,29.90
2022-08-09T15:30:48.739Z,30.20
2022-08-09T15:32:28.552Z,30.00
2022-08-09T15:35:17.834Z,29.80
2022-08-09T15:37:57.461Z,29.90
2022-08-09T15:40:43.782Z,29.60
2022-08-09T15:43:14.858Z,29.80
2022-08-09T15:45:51.700Z,30.10
2022-08-09T15:48:35.457Z,30.10
2022-08-09T15:51:11.381Z,29.90
2022-08-09T15:54:05.214Z,29.70
2022-08-09T15:56:39.490Z,29.80
2022-08-09T15:59:09.341Z,29.90
2022-08-09T16:01:39.664Z,29.90
2022-08-09T16:04:13.610Z,29.70
2022-08-09T16:06:50.385Z,29.60
2022-08-09T16:09:32.762Z,29.70
2022-08-09T16:12:12.091Z,29.60
2022-08-09T16:14:45.996Z,29.50
2022-08-09T16:17:16.905Z,29.70
2022-08-09T16:19:49.671Z,29.50
2022-08-09T16:22:42.262Z,29.70
2022-08-09T16:25:14.403Z,29.50
2022-08-09T16:27:47.985Z,29.20
2022-08-09T16:30:28.461Z,29.00
2022-08-09T16:33:11.692Z,28.90
2022-08-09T16:35:56.953Z,29.00
2022-08-09T16:38:33.233Z,28.90
2022-08-09T16:41:04.011Z,29.10
2022-08-09T16:43:34.556Z,29.00
2022-08-09T16:46:10.900Z,29.00
2022-08-09T16:48:54.798Z,29.00
2022-08-09T16:51:31.832Z,29.20
2022-08-09T16:54:26.205Z,29.20
2022-08-09T16:56:57.660Z,29.30
2022-08-09T16:59:28.108Z,29.10
2022-08-09T17:02:04.722Z,29.10
2022-08-09T17:04:35.455Z,29.00
2022-08-09T17:08:43.599Z,28.90
2022-08-09T17:10:04.256Z,28.90
2022-08-09T17:12:34.632Z,29.00
2022-08-09T17:15:31.188Z,29.00
2022-08-09T17:18:00.621Z,29.00
2022-08-09T17:20:36.007Z,28.80
2022-08-09T17:23:10.544Z,28.90
2022-08-09T17:25:52.971Z,29.00
2022-08-09T17:28:23.219Z,28.90
2022-08-09T17:30:53.237Z,28.90
2022-08-09T17:33:23.387Z,28.90
2022-08-09T17:35:53.772Z,28.70
2022-08-09T17:38:34.209Z,28.60
2022-08-09T17:41:11.157Z,28.40
2022-08-09T17:43:47.123Z,28.30
2022-08-09T17:46:34.685Z,28.20
2022-08-09T17:49:05.201Z,28.10
2022-08-09T17:51:37.822Z,28.10
2022-08-09T17:54:08.334Z,28.10
2022-08-09T17:56:40.771Z,28.00
2022-08-09T17:59:15.995Z,27.90
2022-08-09T18:02:06.770Z,27.80
2022-08-09T18:04:37.397Z,27.70
2022-08-09T18:07:09.947Z,27.70
2022-08-09T18:10:05.204Z,27.60
2022-08-09T18:12:40.878Z,27.50
2022-08-09T18:16:04.984Z,27.50
2022-08-09T18:18:25.824Z,27.40
2022-08-09T18:21:12.305Z,27.30
2022-08-09T18:24:12.709Z,27.30
2022-08-09T18:26:35.978Z,27.20
2022-08-09T18:30:39.094Z,27.10
2022-08-09T18:32:03.087Z,27.00
2022-08-09T18:34:35.597Z,26.90
2022-08-09T18:37:10.527Z,26.90
2022-08-09T18:39:57.717Z,26.80
2022-08-09T18:42:29.238Z,26.80
2022-08-09T18:45:02.504Z,26.70
2022-08-09T18:47:38.647Z,26.60
2022-08-09T18:50:10.206Z,26.50
2022-08-09T18:52:42.540Z,26.40
2022-08-09T18:55:14.037Z,26.40
2022-08-09T18:57:45.539Z,26.30
2022-08-09T19:00:19.324Z,26.20
2022-08-09T19:02:51.105Z,26.10
2022-08-09T19:05:49.037Z,26.00
2022-08-09T19:08:19.642Z,25.90
2022-08-09T19:10:50.708Z,25.80
2022-08-09T19:13:38.033Z,25.70
2022-08-09T19:16:13.705Z,25.60
2022-08-09T19:18:50.928Z,25.60
2022-08-09T19:21:51.847Z,25.40
2022-08-09T19:24:39.577Z,25.40
2022-08-09T19:27:02.026Z,25.30
2022-08-09T19:29:38.146Z,25.30
2022-08-09T19:32:29.599Z,25.20
2022-08-09T19:35:01.486Z,25.10
2022-08-09T19:37:41.031Z,25.00
2022-08-09T19:40:22.349Z,25.00
2022-08-09T19:42:52.356Z,25.00
2022-08-09T19:45:22.355Z,24.90
2022-08-09T19:47:56.767Z,24.80
2022-08-09T19:50:49.234Z,24.80
2022-08-09T19:53:18.148Z,24.70
2022-08-09T19:56:03.043Z,24.70
2022-08-09T19:58:36.930Z,24.60
2022-08-09T20:01:08.399Z,24.50
2022-08-09T20:04:16.943Z,24.40
2022-08-09T20:06:31.540Z,24.30
2022-08-09T20:09:01.729Z,24.20
2022-08-09T20:11:43.041Z,24.20
2022-08-09T20:14:16.452Z,24.20
2022-08-09T20:16:50.205Z,24.10
2022-08-09T20:19:48.387Z,24.00
2022-08-09T20:22:16.936Z,24.00
2022-08-09T20:24:53.733Z,24.00
2022-08-09T20:27:24.790Z,24.00
2022-08-09T20:30:00.963Z,24.00
2022-08-09T20:32:33.603Z,23.90
2022-08-09T20:35:06.941Z,23.90
2022-08-09T20:38:19.340Z,24.00
2022-08-09T20:40:28.258Z,23.90
2022-08-09T20:43:11.990Z,23.80
2022-08-09T20:46:01.308Z,23.70
2022-08-09T20:48:40.726Z,23.60
2022-08-09T20:51:16.763Z,23.50
2022-08-09T20:53:49.737Z,23.50
2022-08-09T20:56:21.881Z,23.40
2022-08-09T20:58:58.976Z,23.40
2022-08-09T21:01:34.696Z,23.30
2022-08-09T21:05:54.350Z,23.30
2022-08-09T21:07:14.423Z,23.40
2022-08-09T21:09:56.464Z,23.40
2022-08-09T21:15:23.754Z,23.40
2022-08-09T21:18:23.974Z,23.40
2022-08-09T21:21:17.398Z,23.40
2022-08-09T21:23:51.658Z,23.30
2022-08-09T21:26:19.160Z,23.40
2022-08-09T21:28:55.570Z,23.30
2022-08-09T21:31:49.253Z,23.40
2022-08-09T21:34:28.464Z,23.30
2022-08-09T21:36:59.045Z,23.30
2022-08-09T21:39:42.120Z,23.30
2022-08-09T21:42:12.959Z,23.30
2022-08-09T21:44:43.691Z,23.30
2022-08-09T21:47:18.044Z,23.20
2022-08-09T21:49:49.555Z,23.10
2022-08-09T21:52:22.250Z,23.00
2022-08-09T21:55:03.427Z,22.90
2022-08-09T21:57:38.302Z,22.80
2022-08-09T22:00:32.213Z,22.90
2022-08-09T22:03:04.811Z,22.80
2022-08-09T22:05:37.407Z,22.70
2022-08-09T22:08:15.081Z,22.70
2022-08-09T22:11:50.076Z,22.60
2022-08-09T22:13:42.292Z,22.60
2022-08-09T22:16:14.850Z,22.60
2022-08-09T22:18:52.880Z,22.60
2022-08-09T22:21:44.703Z,22.60
2022-08-09T22:24:17.041Z,22.50
2022-08-09T22:26:53.288Z,22.50
2022-08-09T22:29:28.420Z,22.50
2022-08-09T22:32:02.355Z,22.50
2022-08-09T22:34:37.332Z,22.40
2022-08-09T22:37:12.403Z,22.40
2022-08-09T22:39:57.097Z,22.40
2022-08-09T22:42:31.483Z,22.30
2022-08-09T22:48:11.135Z,22.10
2022-08-09T22:48:11.845Z,22.20
2022-08-09T22:50:52.859Z,22.10
2022-08-09T22:53:23.293Z,22.00
2022-08-09T22:56:29.391Z,22.00
2022-08-09T22:58:46.238Z,22.00
2022-08-09T23:01:16.226Z,21.90
2022-08-09T23:04:04.133Z,21.80
2022-08-09T23:06:48.556Z,21.70
2022-08-09T23:09:19.065Z,21.70
2022-08-09T23:11:49.064Z,21.80
2022-08-09T23:14:37.596Z,21.80
2022-08-09T23:17:11.522Z,21.80
2022-08-09T23:20:06.276Z,21.70
2022-08-09T23:22:35.874Z,21.80
2022-08-09T23:25:06.098Z,21.80
2022-08-09T23:27:37.125Z,21.80
2022-08-09T23:30:29.468Z,21.80
2022-08-09T23:32:59.342Z,21.70
2022-08-09T23:35:29.458Z,21.70
2022-08-09T23:37:59.501Z,21.60
2022-08-09T23:40:29.337Z,21.60
2022-08-09T23:42:59.210Z,21.50
2022-08-09T23:45:37.541Z,21.50
2022-08-09T23:48:09.262Z,21.50
2022-08-09T23:50:39.208Z,21.40
2022-08-09T23:53:10.399Z,21.30
2022-08-09T23:55:49.383Z,21.30
2022-08-09T23:58:29.849Z,21.20
